Time;durP1;ratioP1;P1;durP2;ratioP2;P2;SDS_P1;SDS_P2;PMS_P1;PMS_P2;Temp;Humidity;BMP_temperature;BMP_pressure;BME280_temperature;BME280_humidity;BME280_pressure;Samples;Min_cycle;Max_cycle;Signal;HPM_P1;HPM_P2
2023/08/24 00:00:37;;;;;;;3.30;3.00;;;;;;;14.57;100.00;101738.53;1020062;28;20040;-54
2023/08/24 00:01:25;;;;;;;4.40;3.13;;;;;;;14.61;100.00;101734.38;1020756;29;20083;-56
2023/08/24 00:02:10;;;;;;;6.00;3.08;;;;;;;14.61;100.00;101734.38;1019244;29;20060;-56
2023/08/24 00:02:54;;;;;;;3.47;3.17;;;;;;;14.43;100.00;101737.81;1014528;29;20052;-55
2023/08/24 00:03:48;;;;;;;3.95;2.85;;;;;;;14.38;100.00;101733.09;1019248;29;20043;-55
2023/08/24 00:04:48;;;;;;;3.65;3.35;;;;;;;14.74;100.00;101729.69;1016725;29;20581;-56
2023/08/24 00:05:35;;;;;;;3.08;2.78;;;;;;;14.50;100.00;101741.25;1019544;29;20043;-55
2023/08/24 00:06:08;;;;;;;4.57;3.35;;;;;;;14.49;100.00;101726.22;1018593;29;20055;-54
2023/08/24 00:06:45;;;;;;;4.60;3.30;;;;;;;14.51;100.00;101724.13;1022107;29;20545;-55
2023/08/24 00:07:38;;;;;;;3.50;3.10;;;;;;;14.58;100.00;101724.09;1020420;29;20051;-55
2023/08/24 00:08:22;;;;;;;3.90;3.55;;;;;;;14.58;100.00;101722.22;1020569;29;20430;-54
2023/08/24 00:09:28;;;;;;;7.65;3.97;;;;;;;14.58;100.00;101724.09;1020607;29;20067;-55
2023/08/24 00:10:07;;;;;;;5.45;4.22;;;;;;;14.73;100.00;101727.22;1022099;29;20048;-53
2023/08/24 00:10:56;;;;;;;3.47;3.10;;;;;;;15.13;100.00;101725.75;1021917;29;20465;-54
2023/08/24 00:11:28;;;;;;;3.80;3.50;;;;;;;15.29;100.00;101726.19;1022689;28;20091;-55
2023/08/24 00:11:59;;;;;;;5.20;4.05;;;;;;;15.40;100.00;101717.38;1022701;29;20039;-54
2023/08/24 00:12:49;;;;;;;4.50;4.13;;;;;;;15.48;100.00;101719.75;1023278;28;20062;-54
2023/08/24 00:13:27;;;;;;;3.42;3.10;;;;;;;15.55;100.00;101717.78;1023260;29;20055;-55
2023/08/24 00:14:40;;;;;;;3.10;2.80;;;;;;;15.63;100.00;101714.84;1024091;28;20055;-54
2023/08/24 00:15:18;;;;;;;2.90;2.70;;;;;;;15.67;100.00;101709.81;1023578;29;20043;-56
2023/08/24 00:15:49;;;;;;;3.40;3.10;;;;;;;15.67;100.00;101707.13;1021881;29;20048;-56
2023/08/24 00:16:31;;;;;;;3.72;3.42;;;;;;;15.64;100.00;101713.78;1023548;29;20047;-53
2023/08/24 00:17:15;;;;;;;5.35;3.63;;;;;;;15.65;100.00;101712.72;1019693;29;20109;-55
2023/08/24 00:17:55;;;;;;;4.15;3.50;;;;;;;15.63;100.00;101711.31;1020600;29;20047;-55
2023/08/24 00:18:37;;;;;;;4.60;3.13;;;;;;;15.62;100.00;101707.81;1015968;29;20048;-56
2023/08/24 00:20:08;;;;;;;7.53;3.03;;;;;;;15.62;100.00;101704.31;1020013;29;20138;-54
2023/08/24 00:20:45;;;;;;;4.68;3.60;;;;;;;15.60;100.00;101691.09;1020474;29;20055;-54
2023/08/24 00:21:29;;;;;;;5.68;2.83;;;;;;;15.58;100.00;101693.19;1020454;29;20174;-54
2023/08/24 00:22:22;;;;;;;2.97;2.55;;;;;;;15.39;100.00;101691.59;1020275;29;20047;-55
2023/08/24 00:22:59;;;;;;;5.18;3.15;;;;;;;15.24;100.00;101696.53;1023012;29;20047;-55
2023/08/24 00:23:48;;;;;;;3.33;3.03;;;;;;;14.99;100.00;101692.06;1019743;29;20048;-55
2023/08/24 00:24:24;;;;;;;6.20;2.83;;;;;;;15.14;100.00;101697.88;1019807;29;20411;-55
2023/08/24 00:25:08;;;;;;;3.72;2.78;;;;;;;15.28;100.00;101697.69;1025318;28;20140;-55
2023/08/24 00:25:53;;;;;;;4.28;3.33;;;;;;;14.92;100.00;101694.00;1019685;29;20426;-54
2023/08/24 00:26:37;;;;;;;4.43;4.03;;;;;;;14.97;100.00;101691.47;1023700;29;20129;-55
2023/08/24 00:27:32;;;;;;;3.22;2.92;;;;;;;14.94;100.00;101702.66;1024714;29;20042;-55
2023/08/24 00:28:11;;;;;;;4.70;2.85;;;;;;;15.23;100.00;101692.19;1024344;29;20058;-55
2023/08/24 00:28:48;;;;;;;8.27;3.08;;;;;;;15.15;100.00;101688.78;1027111;28;20051;-54
2023/08/24 00:29:32;;;;;;;6.22;3.75;;;;;;;15.29;100.00;101694.78;1028107;28;20083;-56
2023/08/24 00:30:07;;;;;;;3.33;2.90;;;;;;;15.26;100.00;101699.78;1027809;28;20118;-54
2023/08/24 00:30:54;;;;;;;6.10;4.45;;;;;;;15.50;100.00;101696.16;1035244;28;20104;-55
2023/08/24 00:32:35;;;;;;;4.10;3.70;;;;;;;15.65;100.00;101703.84;1043794;28;20695;-56
2023/08/24 00:33:07;;;;;;;4.55;3.72;;;;;;;15.67;100.00;101705.25;1043884;28;20127;-55
2023/08/24 00:33:43;;;;;;;7.03;3.90;;;;;;;15.71;100.00;101706.44;1046265;28;20053;-55
2023/08/24 00:34:14;;;;;;;7.75;3.35;;;;;;;15.65;100.00;101704.69;1044414;28;20041;-55
2023/08/24 00:34:48;;;;;;;5.22;3.60;;;;;;;15.53;100.00;101700.25;1040874;28;20048;-55
2023/08/24 00:35:32;;;;;;;4.88;3.60;;;;;;;15.41;100.00;101702.91;1040315;28;20363;-55
2023/08/24 00:36:10;;;;;;;4.68;3.53;;;;;;;14.95;100.00;101704.28;1038771;28;20048;-54
2023/08/24 00:36:56;;;;;;;6.78;4.05;;;;;;;14.77;100.00;101693.56;1041166;28;20129;-55
2023/08/24 00:38:07;;;;;;;4.05;3.30;;;;;;;15.17;100.00;101698.47;1033657;28;20043;-55
2023/08/24 00:38:50;;;;;;;5.40;3.72;;;;;;;15.41;100.00;101681.44;1043559;28;20045;-55
2023/08/24 00:39:25;;;;;;;4.43;3.70;;;;;;;15.50;100.00;101690.81;1049960;28;20044;-55
2023/08/24 00:40:17;;;;;;;3.80;3.50;;;;;;;15.54;100.00;101683.91;1050948;28;20080;-54
2023/08/24 00:40:58;;;;;;;4.20;3.45;;;;;;;15.44;100.00;101672.91;1045446;28;20041;-55
2023/08/24 00:41:35;;;;;;;13.10;4.28;;;;;;;15.24;100.00;101675.03;1040950;28;20122;-54
2023/08/24 00:42:24;;;;;;;9.10;4.10;;;;;;;15.23;100.00;101674.22;1031627;28;20086;-54
2023/08/24 00:43:10;;;;;;;4.25;3.88;;;;;;;15.17;100.00;101682.38;1036549;28;20384;-54
2023/08/24 00:44:01;;;;;;;3.78;3.47;;;;;;;15.17;100.00;101685.88;1035644;28;20192;-55
2023/08/24 00:44:49;;;;;;;7.70;3.45;;;;;;;15.34;100.00;101680.69;1041248;28;20034;-54
2023/08/24 00:45:36;;;;;;;4.03;3.72;;;;;;;15.37;100.00;101693.69;1033482;28;20077;-55
2023/08/24 00:46:13;;;;;;;5.10;3.58;;;;;;;15.58;100.00;101695.03;1035695;28;20668;-54
2023/08/24 00:46:49;;;;;;;5.28;3.60;;;;;;;15.54;100.00;101686.59;1040085;28;20068;-55
2023/08/24 00:47:39;;;;;;;4.43;4.03;;;;;;;15.52;100.00;101694.06;1032310;28;20448;-55
2023/08/24 00:48:39;;;;;;;5.88;3.75;;;;;;;15.62;100.00;101694.41;1036807;28;20506;-53
2023/08/24 00:49:35;;;;;;;3.97;3.58;;;;;;;15.79;100.00;101691.03;1043781;28;20048;-53
2023/08/24 00:50:22;;;;;;;7.15;3.58;;;;;;;15.85;100.00;101692.78;1047503;28;20045;-55
2023/08/24 00:51:15;;;;;;;4.65;3.90;;;;;;;15.82;100.00;101693.25;1044847;28;20045;-55
2023/08/24 00:51:47;;;;;;;8.43;3.92;;;;;;;15.80;100.00;101690.00;1043692;28;20060;-55
2023/08/24 00:52:20;;;;;;;10.38;4.45;;;;;;;15.82;100.00;101696.75;1044427;28;20048;-55
2023/08/24 00:53:07;;;;;;;5.78;4.28;;;;;;;15.77;100.00;101697.47;1043696;28;20049;-55
2023/08/24 00:53:53;;;;;;;7.78;4.30;;;;;;;15.68;100.00;101696.16;1042237;28;20127;-55
2023/08/24 00:54:31;;;;;;;7.25;4.28;;;;;;;15.55;100.00;101695.47;1040881;28;20495;-53
2023/08/24 00:55:24;;;;;;;7.80;3.33;;;;;;;15.46;100.00;101697.69;1049488;28;20036;-55
2023/08/24 00:56:24;;;;;;;3.95;2.83;;;;;;;15.42;100.00;101704.56;1047501;28;20396;-55
2023/08/24 00:57:15;;;;;;;9.65;3.92;;;;;;;15.11;100.00;101701.03;1048599;28;20410;-55
2023/08/24 00:57:58;;;;;;;4.47;3.25;;;;;;;15.46;100.00;101695.00;1041619;28;20407;-53
2023/08/24 00:58:41;;;;;;;;;;;;;;;15.63;100.00;101696.03;1042952;28;20041;-55
2023/08/24 00:59:30;;;;;;;5.18;3.15;;;;;;;15.65;100.00;101688.56;1041322;28;19978;-52
2023/08/24 01:00:11;;;;;;;4.63;4.00;;;;;;;15.71;100.00;101687.63;1045557;28;20090;-55
2023/08/24 01:00:45;;;;;;;3.03;2.83;;;;;;;15.72;100.00;101689.28;1036439;28;20042;-55
2023/08/24 01:01:25;;;;;;;8.90;4.22;;;;;;;15.62;100.00;101678.28;1032751;28;20110;-54
2023/08/24 01:02:17;;;;;;;8.13;3.38;;;;;;;15.48;100.00;101676.78;1031137;28;20043;-55
2023/08/24 01:02:58;;;;;;;4.35;3.28;;;;;;;15.21;100.00;101683.56;1042005;28;20046;-54
2023/08/24 01:03:51;;;;;;;;;;;;;;;15.04;100.00;101670.75;1046285;28;20430;-53
2023/08/24 01:04:56;;;;;;;3.75;3.42;;;;;;;14.99;100.00;101661.75;1038783;28;20260;-55
2023/08/24 01:05:43;;;;;;;4.75;3.78;;;;;;;15.27;100.00;101663.84;1037520;28;20053;-58
2023/08/24 01:06:25;;;;;;;3.28;2.97;;;;;;;15.46;100.00;101654.72;1033767;28;20042;-55
2023/08/24 01:07:02;;;;;;;4.40;4.00;;;;;;;15.46;100.00;101647.47;1033364;28;20049;-53
2023/08/24 01:07:51;;;;;;;10.88;6.00;;;;;;;15.48;100.00;101647.25;1037350;28;20042;-54
2023/08/24 01:08:45;;;;;;;7.57;4.25;;;;;;;15.49;100.00;101648.06;1033145;28;20424;-54
2023/08/24 01:09:21;;;;;;;5.88;3.90;;;;;;;15.44;100.00;101659.50;1038510;28;20128;-55
2023/08/24 01:10:21;;;;;;;4.82;4.32;;;;;;;15.24;100.00;101658.94;1042577;28;20045;-55
2023/08/24 01:11:53;;;;;;;6.25;4.40;;;;;;;15.39;100.00;101668.25;1047113;28;20431;-52
2023/08/24 01:13:11;;;;;;;4.28;3.97;;;;;;;15.54;100.00;101675.88;1044223;28;20041;-54
2023/08/24 01:14:25;;;;;;;5.35;4.85;;;;;;;15.22;100.00;101663.72;1040552;28;20040;-55
2023/08/24 01:16:03;;;;;;;5.97;5.00;;;;;;;15.27;100.00;101675.41;1042312;28;20049;-54
2023/08/24 01:16:42;;;;;;;6.20;4.32;;;;;;;15.44;100.00;101675.59;1041698;28;20198;-54
2023/08/24 01:17:35;;;;;;;5.78;5.15;;;;;;;15.35;100.00;101672.44;1036830;28;20174;-54
2023/08/24 01:18:26;;;;;;;8.60;4.95;;;;;;;15.10;100.00;101680.59;1028619;28;20050;-54
2023/08/24 01:19:41;;;;;;;5.30;4.40;;;;;;;14.81;100.00;101681.38;1035562;28;20405;-55
2023/08/24 01:20:30;;;;;;;6.25;4.15;;;;;;;15.07;100.00;101678.38;1041899;28;20037;-55
2023/08/24 01:21:11;;;;;;;7.55;4.55;;;;;;;14.91;100.00;101684.34;1045182;28;20522;-53
2023/08/24 01:23:04;;;;;;;10.00;4.90;;;;;;;14.75;100.00;101676.88;1045963;28;20037;-55
2023/08/24 01:23:56;;;;;;;;;;;;;;;;;;;;;
2023/08/24 01:24:41;;;;;;;;;;;;;;;14.97;100.00;101675.38;1042024;28;20053;-53
2023/08/24 01:26:06;;;;;;;8.43;4.93;;;;;;;15.31;100.00;101667.72;1040144;28;19921;-55
2023/08/24 01:26:55;;;;;;;5.45;3.28;;;;;;;15.37;100.00;101673.03;1049373;28;20431;-54
2023/08/24 01:27:38;;;;;;;4.75;4.20;;;;;;;15.30;100.00;101663.41;1048573;28;20350;-54
2023/08/24 01:28:35;;;;;;;5.95;4.25;;;;;;;15.31;100.00;101667.72;1041765;28;20049;-54
2023/08/24 01:29:29;;;;;;;8.10;4.25;;;;;;;15.58;100.00;101660.97;1019584;29;20561;-53
2023/08/24 01:30:40;;;;;;;7.68;4.13;;;;;;;15.66;100.00;101657.97;1024888;28;20055;-55
2023/08/24 01:31:22;;;;;;;4.68;3.80;;;;;;;15.76;100.00;101654.72;1041753;28;20089;-54
2023/08/24 01:32:17;;;;;;;5.80;4.20;;;;;;;15.72;100.00;101651.66;1039730;28;20042;-54
2023/08/24 01:33:11;;;;;;;7.70;4.15;;;;;;;15.44;100.00;101659.50;1041699;28;20494;-53
2023/08/24 01:34:08;;;;;;;3.67;3.28;;;;;;;15.50;100.00;101663.94;1048681;28;20554;-55
2023/08/24 01:34:48;;;;;;;6.45;4.60;;;;;;;15.43;100.00;101661.38;1041699;28;20500;-53
2023/08/24 01:35:33;;;;;;;5.60;4.38;;;;;;;15.58;100.00;101660.09;1039871;28;20046;-55
2023/08/24 01:36:24;;;;;;;5.13;3.95;;;;;;;15.61;100.00;101660.53;1034123;28;20105;-55
2023/08/24 01:37:12;;;;;;;6.40;5.28;;;;;;;15.41;100.00;101659.97;1034272;28;20389;-54
2023/08/24 01:37:52;;;;;;;5.85;4.57;;;;;;;15.31;100.00;101654.28;1039643;28;20033;-54
2023/08/24 01:39:42;;;;;;;6.00;4.75;;;;;;;15.10;100.00;101652.94;1048181;28;20545;-53
2023/08/24 01:40:33;;;;;;;5.43;4.20;;;;;;;15.19;100.00;101651.56;1050217;28;20044;-54
2023/08/24 01:41:42;;;;;;;6.72;5.03;;;;;;;15.28;100.00;101649.38;1045326;28;20036;-54
2023/08/24 01:42:23;;;;;;;7.03;4.25;;;;;;;15.00;100.00;101648.09;1029596;28;20075;-55
2023/08/24 01:43:07;;;;;;;5.90;4.85;;;;;;;15.14;100.00;101644.22;1037475;28;20646;-55
2023/08/24 01:43:48;;;;;;;6.35;4.45;;;;;;;15.07;100.00;101654.22;1036739;28;20574;-53
2023/08/24 01:44:35;;;;;;;;;;;;;;;14.99;100.00;101651.00;1035477;28;20046;-54
2023/08/24 01:45:32;;;;;;;4.72;4.25;;;;;;;15.22;100.00;101655.66;1043031;28;19937;-53
2023/08/24 01:47:36;;;;;;;5.78;4.15;;;;;;;14.97;100.00;101656.59;1040539;28;20055;-55
2023/08/24 01:48:29;;;;;;;4.63;4.05;;;;;;;15.08;100.00;101660.41;1044344;28;20044;-55
2023/08/24 01:49:26;;;;;;;10.23;6.45;;;;;;;15.06;100.00;101651.72;1041936;28;20049;-55
2023/08/24 01:50:15;;;;;;;4.88;4.28;;;;;;;14.94;100.00;101659.72;1035874;28;20046;-55
2023/08/24 01:51:10;;;;;;;4.22;3.83;;;;;;;15.17;100.00;101658.22;1040163;28;20030;-53
2023/08/24 01:52:08;;;;;;;6.22;4.30;;;;;;;15.43;100.00;101663.22;1041570;28;20133;-55
2023/08/24 01:52:48;;;;;;;5.90;3.75;;;;;;;15.53;100.00;101660.81;1039965;28;20080;-54
2023/08/24 01:53:49;;;;;;;4.40;4.00;;;;;;;15.65;100.00;101661.72;1036973;28;20058;-54
2023/08/24 01:54:37;;;;;;;8.30;4.75;;;;;;;15.63;100.00;101666.50;1045946;28;20098;-52
2023/08/24 01:55:16;;;;;;;7.80;4.68;;;;;;;15.70;100.00;101656.47;1045342;28;20037;-54
2023/08/24 01:56:01;;;;;;;7.03;3.63;;;;;;;15.74;100.00;101659.50;1044628;28;20044;-55
2023/08/24 01:56:43;;;;;;;5.30;4.63;;;;;;;15.56;100.00;101657.66;1044233;28;20041;-53
2023/08/24 01:57:30;;;;;;;5.82;4.95;;;;;;;15.63;100.00;101653.06;1044565;28;20029;-53
2023/08/24 01:58:14;;;;;;;6.15;4.60;;;;;;;15.30;100.00;101652.66;1034961;28;20137;-55
2023/08/24 01:59:10;;;;;;;11.48;4.47;;;;;;;15.23;100.00;101646.56;1043418;28;20497;-54
2023/08/24 01:59:45;;;;;;;4.40;4.00;;;;;;;15.19;100.00;101645.38;1038632;28;20072;-55
2023/08/24 02:00:22;;;;;;;6.28;4.53;;;;;;;15.41;100.00;101643.84;1041039;28;20045;-55
2023/08/24 02:01:15;;;;;;;8.27;4.63;;;;;;;15.23;100.00;101643.88;1038648;28;20041;-54
2023/08/24 02:01:52;;;;;;;4.63;3.92;;;;;;;15.09;100.00;101636.03;1036094;28;20492;-54
2023/08/24 02:02:24;;;;;;;8.35;4.78;;;;;;;15.27;100.00;101640.50;1039450;28;20406;-52
2023/08/24 02:02:56;;;;;;;8.45;4.20;;;;;;;14.82;100.00;101640.09;1047861;28;20516;-54
2023/08/24 02:03:29;;;;;;;5.78;4.55;;;;;;;14.67;100.00;101645.00;1047307;28;20032;-55
2023/08/24 02:04:01;;;;;;;5.80;4.40;;;;;;;14.51;100.00;101632.97;1047453;28;20062;-53
2023/08/24 02:04:33;;;;;;;4.30;3.90;;;;;;;14.46;100.00;101633.66;1048048;28;20045;-53
2023/08/24 02:05:05;;;;;;;4.97;3.83;;;;;;;14.23;100.00;101636.13;1047493;28;20074;-53
2023/08/24 02:05:36;;;;;;;5.65;4.63;;;;;;;14.14;100.00;101637.44;1047610;28;20130;-54
2023/08/24 02:06:08;;;;;;;6.63;4.68;;;;;;;14.06;100.00;101640.41;1048231;28;20037;-54
2023/08/24 02:06:48;;;;;;;5.15;4.00;;;;;;;14.09;100.00;101634.63;1048756;28;20513;-54
2023/08/24 02:07:20;;;;;;;6.60;4.30;;;;;;;14.27;100.00;101642.72;1047488;28;20101;-53
2023/08/24 02:07:52;;;;;;;4.82;4.07;;;;;;;14.24;100.00;101648.47;1043558;28;20052;-54
2023/08/24 02:08:23;;;;;;;7.35;4.15;;;;;;;14.40;100.00;101652.47;1043446;28;20041;-54
2023/08/24 02:08:55;;;;;;;5.00;4.45;;;;;;;14.67;100.00;101653.03;1040097;28;20269;-53
2023/08/24 02:09:27;;;;;;;5.90;3.83;;;;;;;15.01;100.00;101654.28;1043886;28;20040;-54
2023/08/24 02:09:58;;;;;;;5.55;3.83;;;;;;;15.17;100.00;101664.41;1047577;28;20407;-53
2023/08/24 02:10:30;;;;;;;4.45;4.05;;;;;;;15.30;100.00;101655.34;1045527;28;20182;-52
2023/08/24 02:11:02;;;;;;;7.68;6.82;;;;;;;15.41;100.00;101654.59;1047385;28;20149;-53
2023/08/24 02:11:36;;;;;;;5.28;4.78;;;;;;;15.40;100.00;101659.13;1047933;28;20037;-53
2023/08/24 02:12:08;;;;;;;6.20;3.95;;;;;;;15.37;100.00;101661.47;1047877;28;20047;-55
2023/08/24 02:12:39;;;;;;;7.25;5.50;;;;;;;15.32;100.00;101659.44;1043263;28;20195;-53
2023/08/24 02:13:11;;;;;;;7.43;5.28;;;;;;;15.23;100.00;101662.66;1043555;28;20033;-55
2023/08/24 02:13:42;;;;;;;5.40;4.00;;;;;;;15.47;100.00;101659.03;1044203;28;20187;-55
2023/08/24 02:14:14;;;;;;;8.50;5.20;;;;;;;15.48;100.00;101655.31;1043365;28;20037;-55
2023/08/24 02:14:46;;;;;;;5.15;4.72;;;;;;;15.59;100.00;101656.41;1047736;28;20041;-54
2023/08/24 02:15:20;;;;;;;4.93;4.47;;;;;;;15.54;100.00;101654.38;1043454;28;20246;-54
2023/08/24 02:16:01;;;;;;;5.85;5.35;;;;;;;15.54;100.00;101653.56;1040055;28;20048;-53
2023/08/24 02:16:33;;;;;;;7.57;5.53;;;;;;;15.62;100.00;101650.59;1043809;28;20114;-54
2023/08/24 02:17:04;;;;;;;7.18;5.70;;;;;;;15.58;100.00;101655.59;1040854;28;20041;-54
2023/08/24 02:17:36;;;;;;;6.05;4.30;;;;;;;15.52;100.00;101655.66;1040998;28;20455;-55
2023/08/24 02:18:08;;;;;;;5.22;4.72;;;;;;;15.28;100.00;101652.06;1043905;28;20036;-55
2023/08/24 02:18:40;;;;;;;6.22;5.53;;;;;;;15.19;100.00;101648.06;1031560;28;20062;-55
2023/08/24 02:19:12;;;;;;;8.15;5.07;;;;;;;15.22;100.00;101642.25;1035814;28;20050;-55
2023/08/24 02:19:44;;;;;;;5.78;4.50;;;;;;;15.12;100.00;101651.66;1042119;28;20065;-53
2023/08/24 02:20:15;;;;;;;9.48;4.80;;;;;;;15.14;100.00;101654.94;1037182;28;20412;-53
2023/08/24 02:20:47;;;;;;;7.10;4.93;;;;;;;15.19;100.00;101651.56;1043959;28;20052;-54
2023/08/24 02:21:18;;;;;;;7.68;4.75;;;;;;;15.28;100.00;101649.38;1047978;28;20413;-54
2023/08/24 02:21:50;;;;;;;5.47;4.70;;;;;;;15.32;100.00;101653.25;1047497;28;20040;-53
2023/08/24 02:22:22;;;;;;;5.20;4.70;;;;;;;15.32;100.00;101650.56;1047933;28;20040;-54
2023/08/24 02:22:53;;;;;;;4.75;4.28;;;;;;;15.27;100.00;101648.56;1047975;28;20044;-53
2023/08/24 02:23:25;;;;;;;7.07;5.13;;;;;;;15.34;100.00;101654.69;1045658;28;20558;-54
2023/08/24 02:23:59;;;;;;;6.30;4.03;;;;;;;15.43;100.00;101653.31;1047992;28;20040;-54
2023/08/24 02:24:49;;;;;;;5.90;5.32;;;;;;;15.45;100.00;101653.09;1046074;28;20846;-54
2023/08/24 02:25:21;;;;;;;5.20;4.30;;;;;;;15.54;100.00;101651.69;1043703;28;20045;-53
2023/08/24 02:25:52;;;;;;;7.03;5.32;;;;;;;15.59;100.00;101649.16;1039272;28;20041;-54
2023/08/24 02:26:24;;;;;;;7.03;4.68;;;;;;;15.69;100.00;101657.50;1042156;28;20110;-54
2023/08/24 02:26:55;;;;;;;5.20;4.70;;;;;;;15.67;100.00;101656.91;1039478;28;20041;-54
2023/08/24 02:27:27;;;;;;;8.52;4.95;;;;;;;15.71;100.00;101658.09;1043727;28;20045;-53
2023/08/24 02:27:59;;;;;;;5.10;4.60;;;;;;;15.84;100.00;101658.91;1043243;28;20052;-53
2023/08/24 02:28:30;;;;;;;5.40;4.72;;;;;;;15.79;100.00;101658.81;1044064;28;20269;-54
2023/08/24 02:29:02;;;;;;;6.15;4.43;;;;;;;15.82;100.00;101661.03;1047331;28;20044;-51
2023/08/24 02:29:34;;;;;;;5.18;4.68;;;;;;;15.81;100.00;101654.84;1047426;28;20052;-53
2023/08/24 02:30:06;;;;;;;7.80;4.45;;;;;;;15.84;100.00;101658.91;1048316;28;20033;-53
2023/08/24 02:30:38;;;;;;;5.43;4.45;;;;;;;15.89;100.00;101664.44;1047787;28;20060;-54
2023/08/24 02:31:10;;;;;;;6.57;5.43;;;;;;;15.84;100.00;101664.28;1047800;28;20048;-53
2023/08/24 02:31:42;;;;;;;5.55;4.75;;;;;;;16.01;100.00;101666.09;1048224;28;20489;-53
2023/08/24 02:32:13;;;;;;;5.78;4.35;;;;;;;16.01;100.00;101662.59;1047594;28;20036;-53
2023/08/24 02:32:45;;;;;;;6.93;4.25;;;;;;;16.04;100.00;101656.75;1047852;28;20045;-53
2023/08/24 02:33:17;;;;;;;5.57;5.00;;;;;;;15.99;100.00;101654.75;1048181;28;20087;-54
2023/08/24 02:33:49;;;;;;;5.88;5.30;;;;;;;16.03;100.00;101658.59;1047645;28;20041;-53
2023/08/24 02:34:21;;;;;;;5.20;4.30;;;;;;;16.09;100.00;101659.53;1047705;28;20063;-53
2023/08/24 02:34:52;;;;;;;6.65;4.75;;;;;;;16.18;100.00;101663.53;1047960;28;20046;-53
2023/08/24 02:35:24;;;;;;;6.90;5.10;;;;;;;16.25;100.00;101664.25;1046744;28;20048;-53
2023/08/24 02:35:56;;;;;;;5.53;5.03;;;;;;;16.34;100.00;101665.50;1047480;28;20036;-53
2023/08/24 02:36:28;;;;;;;5.05;4.57;;;;;;;16.29;100.00;101657.34;1047880;28;20041;-52
2023/08/24 02:37:00;;;;;;;5.18;4.68;;;;;;;16.34;100.00;101665.50;1044329;28;20037;-54
2023/08/24 02:37:32;;;;;;;8.63;4.72;;;;;;;16.43;100.00;101660.59;1047889;28;20055;-55
2023/08/24 02:38:03;;;;;;;10.35;4.63;;;;;;;16.32;100.00;101664.94;1047831;28;20130;-55
2023/08/24 02:38:37;;;;;;;8.65;5.07;;;;;;;16.38;100.00;101666.69;1045325;28;20049;-55
2023/08/24 02:39:09;;;;;;;5.05;4.43;;;;;;;16.41;100.00;101667.25;1047780;28;20041;-55
2023/08/24 02:39:40;;;;;;;5.47;4.43;;;;;;;16.39;100.00;101660.25;1043927;28;20120;-55
2023/08/24 02:40:12;;;;;;;5.95;5.45;;;;;;;16.39;100.00;101671.00;1043507;28;20098;-53
2023/08/24 02:40:43;;;;;;;5.88;4.60;;;;;;;16.45;100.00;101665.75;1043383;28;20073;-54
2023/08/24 02:41:34;;;;;;;5.10;4.60;;;;;;;16.41;100.00;101669.94;1044986;28;20701;-54
2023/08/24 02:42:06;;;;;;;5.72;4.47;;;;;;;16.43;100.00;101662.47;1046521;28;20055;-53
2023/08/24 02:42:37;;;;;;;10.18;5.20;;;;;;;16.51;100.00;101667.50;1046904;28;20102;-55
2023/08/24 02:43:09;;;;;;;5.78;5.28;;;;;;;16.48;100.00;101676.03;1047750;28;20040;-55
2023/08/24 02:43:41;;;;;;;5.80;4.28;;;;;;;16.46;100.00;101662.84;1047707;28;20047;-55
2023/08/24 02:44:15;;;;;;;7.03;4.90;;;;;;;16.50;100.00;101668.56;1047194;28;20212;-55
2023/08/24 02:44:46;;;;;;;7.85;4.47;;;;;;;16.42;100.00;101660.81;1046998;28;20498;-55
2023/08/24 02:45:18;;;;;;;4.85;4.30;;;;;;;16.29;100.00;101659.22;1047235;28;20040;-54
2023/08/24 02:45:50;;;;;;;5.22;4.75;;;;;;;16.17;100.00;101661.91;1047470;28;20489;-55
2023/08/24 02:46:21;;;;;;;5.15;4.63;;;;;;;16.06;100.00;101663.50;1047988;28;20084;-55
2023/08/24 02:46:53;;;;;;;6.07;4.43;;;;;;;16.06;100.00;101657.31;1048079;28;20132;-55
2023/08/24 02:47:25;;;;;;;6.50;4.20;;;;;;;16.03;100.00;101657.78;1047296;28;20532;-55
2023/08/24 02:47:57;;;;;;;4.80;4.22;;;;;;;15.99;100.00;101654.75;1046951;28;20135;-54
2023/08/24 02:48:29;;;;;;;6.40;5.07;;;;;;;15.94;100.00;101656.50;1047996;28;20561;-53
2023/08/24 02:49:00;;;;;;;5.75;4.28;;;;;;;15.98;100.00;101661.19;1047590;28;20040;-53
2023/08/24 02:49:32;;;;;;;7.03;4.18;;;;;;;15.88;100.00;101649.34;1046873;28;20694;-53
2023/08/24 02:50:06;;;;;;;5.03;4.53;;;;;;;15.86;100.00;101651.44;1047405;28;20473;-53
2023/08/24 02:50:39;;;;;;;4.68;4.28;;;;;;;15.84;100.00;101658.91;1041380;28;20122;-55
2023/08/24 02:51:11;;;;;;;4.97;4.43;;;;;;;15.82;100.00;101661.03;1043757;28;20045;-55
2023/08/24 02:51:42;;;;;;;5.43;4.60;;;;;;;15.93;100.00;101657.56;1042227;28;20391;-55
2023/08/24 02:52:14;;;;;;;7.05;4.22;;;;;;;16.06;100.00;101660.81;1039383;28;20064;-55
2023/08/24 02:52:46;;;;;;;5.88;4.18;;;;;;;16.10;100.00;101660.34;1039698;28;20111;-55
2023/08/24 02:53:17;;;;;;;5.93;5.30;;;;;;;16.13;100.00;101658.03;1043409;28;20415;-55
2023/08/24 02:53:49;;;;;;;5.55;4.60;;;;;;;16.19;100.00;101662.50;1048401;28;20044;-55
2023/08/24 02:54:21;;;;;;;4.57;3.83;;;;;;;16.05;100.00;101658.38;1048249;28;20376;-55
2023/08/24 02:54:53;;;;;;;5.82;5.10;;;;;;;16.12;100.00;101661.75;1047267;28;20058;-55
2023/08/24 02:55:25;;;;;;;8.40;5.07;;;;;;;16.03;100.00;101660.47;1047641;28;20527;-55
2023/08/24 02:55:56;;;;;;;5.68;5.10;;;;;;;15.95;100.00;101658.97;1048569;28;20052;-53
2023/08/24 02:56:28;;;;;;;4.88;4.40;;;;;;;15.97;100.00;101662.22;1047139;28;20133;-53
2023/08/24 02:57:00;;;;;;;6.03;4.80;;;;;;;15.93;100.00;101662.94;1047630;28;20052;-53
2023/08/24 02:57:31;;;;;;;5.80;4.90;;;;;;;16.04;100.00;101664.81;1047647;28;20076;-53
2023/08/24 02:58:03;;;;;;;5.40;4.53;;;;;;;16.20;100.00;101664.13;1047465;28;21082;-55
2023/08/24 02:58:34;;;;;;;11.55;5.15;;;;;;;16.24;100.00;101665.28;1048264;28;20048;-55
2023/08/24 02:59:06;;;;;;;8.63;4.72;;;;;;;16.32;100.00;101662.25;1047558;28;20363;-55
2023/08/24 02:59:38;;;;;;;7.32;5.03;;;;;;;16.42;100.00;101658.13;1047354;28;21963;-55
2023/08/24 03:00:13;;;;;;;5.40;4.05;;;;;;;16.50;100.00;101657.81;1048149;28;20401;-55
2023/08/24 03:00:46;;;;;;;5.90;4.95;;;;;;;16.54;100.00;101658.97;1047916;28;20052;-55
2023/08/24 03:01:18;;;;;;;7.60;4.28;;;;;;;16.58;100.00;101652.06;1047407;28;20033;-55
2023/08/24 03:01:50;;;;;;;5.75;4.82;;;;;;;16.59;100.00;101651.00;1047720;28;20086;-55
2023/08/24 03:02:22;;;;;;;5.80;5.20;;;;;;;16.61;100.00;101656.97;1047781;28;20098;-55
2023/08/24 03:02:54;;;;;;;10.80;5.15;;;;;;;16.60;100.00;101658.00;1047306;28;20044;-55
2023/08/24 03:03:26;;;;;;;8.45;5.03;;;;;;;16.57;100.00;101659.31;1047930;28;20048;-53
2023/08/24 03:03:57;;;;;;;5.70;5.20;;;;;;;16.56;100.00;101657.66;1047665;28;20032;-53
2023/08/24 03:04:29;;;;;;;5.10;4.38;;;;;;;16.56;100.00;101652.28;1047336;28;20592;-53
2023/08/24 03:05:01;;;;;;;4.82;3.78;;;;;;;16.56;100.00;101662.22;1043247;28;20057;-53
2023/08/24 03:05:32;;;;;;;6.97;5.20;;;;;;;16.57;100.00;101661.19;1043552;28;20444;-52
2023/08/24 03:06:06;;;;;;;6.38;4.78;;;;;;;16.54;100.00;101669.72;1043417;28;20043;-55
2023/08/24 03:06:38;;;;;;;7.50;4.97;;;;;;;16.59;100.00;101656.38;1047713;28;20064;-55
2023/08/24 03:07:10;;;;;;;7.03;4.90;;;;;;;16.56;100.00;101648.78;1047560;28;20043;-55
2023/08/24 03:07:42;;;;;;;6.82;4.82;;;;;;;16.57;100.00;101648.53;1042892;28;20080;-55
2023/08/24 03:08:13;;;;;;;6.90;4.78;;;;;;;16.63;100.00;101642.22;1043419;28;20033;-53
2023/08/24 03:08:45;;;;;;;5.57;4.82;;;;;;;16.60;100.00;101642.69;1043772;28;20051;-49
2023/08/24 03:09:17;;;;;;;8.07;4.22;;;;;;;16.44;100.00;101639.94;1047462;28;20048;-52
2023/08/24 03:09:49;;;;;;;8.40;4.35;;;;;;;16.43;100.00;101646.31;1047514;28;20045;-49
2023/08/24 03:10:21;;;;;;;9.18;4.97;;;;;;;16.23;100.00;101636.78;1047470;28;20051;-50
2023/08/24 03:10:53;;;;;;;5.28;4.72;;;;;;;16.12;100.00;101634.06;1043648;28;21258;-49
2023/08/24 03:11:24;;;;;;;4.75;4.28;;;;;;;16.00;100.00;101639.44;1043224;28;20064;-49
2023/08/24 03:11:56;;;;;;;5.15;4.65;;;;;;;15.65;100.00;101632.16;1043786;28;20041;-51